sensor_id;sensor_type;location;lat;lon;timestamp;temperature;humidity
23081;DHT22;11708;50.570;8.532;2023-05-07T00:00:33;14.80;99.90
23081;DHT22;11708;50.570;8.532;2023-05-07T00:02:59;14.80;99.90
23081;DHT22;11708;50.570;8.532;2023-05-07T00:05:25;14.80;99.90
23081;DHT22;11708;50.570;8.532;2023-05-07T00:07:51;14.70;99.90
23081;DHT22;11708;50.570;8.532;2023-05-07T00:10:18;14.80;99.90
23081;DHT22;11708;50.570;8.532;2023-05-07T00:12:43;14.70;99.90
23081;DHT22;11708;50.570;8.532;2023-05-07T00:15:09;14.80;99.90
23081;DHT22;11708;50.570;8.532;2023-05-07T00:17:35;14.70;99.90
23081;DHT22;11708;50.570;8.532;2023-05-07T00:20:00;14.70;99.90
23081;DHT22;11708;50.570;8.532;2023-05-07T00:22:26;14.70;99.90
23081;DHT22;11708;50.570;8.532;2023-05-07T00:24:52;14.70;99.90
23081;DHT22;11708;50.570;8.532;2023-05-07T00:27:17;14.70;99.90
23081;DHT22;11708;50.570;8.532;2023-05-07T00:29:43;14.70;99.90
23081;DHT22;11708;50.570;8.532;2023-05-07T00:32:08;14.70;99.90
23081;DHT22;11708;50.570;8.532;2023-05-07T00:34:34;14.70;99.90
23081;DHT22;11708;50.570;8.532;2023-05-07T00:37:01;14.70;99.90
23081;DHT22;11708;50.570;8.532;2023-05-07T00:39:26;14.70;99.90
23081;DHT22;11708;50.570;8.532;2023-05-07T00:41:52;14.70;99.90
23081;DHT22;11708;50.570;8.532;2023-05-07T00:44:17;14.70;99.90
23081;DHT22;11708;50.570;8.532;2023-05-07T00:46:43;14.70;99.90
23081;DHT22;11708;50.570;8.532;2023-05-07T00:49:11;14.70;99.90
23081;DHT22;11708;50.570;8.532;2023-05-07T00:51:37;14.70;99.90
23081;DHT22;11708;50.570;8.532;2023-05-07T00:54:03;14.70;99.90
23081;DHT22;11708;50.570;8.532;2023-05-07T00:56:28;14.60;99.90
23081;DHT22;11708;50.570;8.532;2023-05-07T00:58:54;14.60;99.90
23081;DHT22;11708;50.570;8.532;2023-05-07T01:01:20;14.60;99.90
23081;DHT22;11708;50.570;8.532;2023-05-07T01:03:46;14.60;99.90
23081;DHT22;11708;50.570;8.532;2023-05-07T01:06:12;14.60;99.90
23081;DHT22;11708;50.570;8.532;2023-05-07T01:08:39;14.60;99.90
23081;DHT22;11708;50.570;8.532;2023-05-07T01:11:07;14.60;99.90
23081;DHT22;11708;50.570;8.532;2023-05-07T01:13:34;14.60;99.90
23081;DHT22;11708;50.570;8.532;2023-05-07T01:16:00;14.50;99.90
23081;DHT22;11708;50.570;8.532;2023-05-07T01:18:26;14.50;99.90
23081;DHT22;11708;50.570;8.532;2023-05-07T01:20:52;14.60;99.90
23081;DHT22;11708;50.570;8.532;2023-05-07T01:23:18;14.60;99.90
23081;DHT22;11708;50.570;8.532;2023-05-07T01:25:54;14.60;99.90
23081;DHT22;11708;50.570;8.532;2023-05-07T01:28:20;14.60;99.90
23081;DHT22;11708;50.570;8.532;2023-05-07T01:30:49;14.60;99.90
23081;DHT22;11708;50.570;8.532;2023-05-07T01:33:19;14.60;99.90
23081;DHT22;11708;50.570;8.532;2023-05-07T01:35:48;14.60;99.90
23081;DHT22;11708;50.570;8.532;2023-05-07T01:38:14;14.60;99.90
23081;DHT22;11708;50.570;8.532;2023-05-07T01:40:40;14.60;99.90
23081;DHT22;11708;50.570;8.532;2023-05-07T01:43:06;14.60;99.90
23081;DHT22;11708;50.570;8.532;2023-05-07T01:45:32;14.60;99.90
23081;DHT22;11708;50.570;8.532;2023-05-07T01:47:59;14.60;99.90
23081;DHT22;11708;50.570;8.532;2023-05-07T01:50:25;14.60;99.90
23081;DHT22;11708;50.570;8.532;2023-05-07T01:52:52;14.60;99.90
23081;DHT22;11708;50.570;8.532;2023-05-07T01:55:17;14.70;99.90
23081;DHT22;11708;50.570;8.532;2023-05-07T01:57:43;14.60;99.90
23081;DHT22;11708;50.570;8.532;2023-05-07T02:00:09;14.50;99.90
23081;DHT22;11708;50.570;8.532;2023-05-07T02:02:35;14.50;99.90
23081;DHT22;11708;50.570;8.532;2023-05-07T02:05:01;14.50;99.90
23081;DHT22;11708;50.570;8.532;2023-05-07T02:07:27;14.40;99.90
23081;DHT22;11708;50.570;8.532;2023-05-07T02:09:53;14.50;99.90
23081;DHT22;11708;50.570;8.532;2023-05-07T02:12:20;14.50;99.90
23081;DHT22;11708;50.570;8.532;2023-05-07T02:14:46;14.50;99.90
23081;DHT22;11708;50.570;8.532;2023-05-07T02:17:12;14.50;99.90
23081;DHT22;11708;50.570;8.532;2023-05-07T02:19:37;14.50;99.90
23081;DHT22;11708;50.570;8.532;2023-05-07T02:22:03;14.50;99.90
23081;DHT22;11708;50.570;8.532;2023-05-07T02:24:28;14.50;99.90
23081;DHT22;11708;50.570;8.532;2023-05-07T02:26:54;14.60;99.90
23081;DHT22;11708;50.570;8.532;2023-05-07T02:29:19;14.60;99.90
23081;DHT22;11708;50.570;8.532;2023-05-07T02:31:45;14.60;99.90
23081;DHT22;11708;50.570;8.532;2023-05-07T02:34:11;14.60;99.90
23081;DHT22;11708;50.570;8.532;2023-05-07T02:36:36;14.60;99.90
23081;DHT22;11708;50.570;8.532;2023-05-07T02:39:02;14.60;99.90
23081;DHT22;11708;50.570;8.532;2023-05-07T02:41:28;14.50;99.90
23081;DHT22;11708;50.570;8.532;2023-05-07T02:43:54;14.50;99.90
23081;DHT22;11708;50.570;8.532;2023-05-07T02:46:19;14.50;99.90
23081;DHT22;11708;50.570;8.532;2023-05-07T02:48:45;14.50;99.90
23081;DHT22;11708;50.570;8.532;2023-05-07T02:51:10;14.50;99.90
23081;DHT22;11708;50.570;8.532;2023-05-07T02:53:36;14.50;99.90
23081;DHT22;11708;50.570;8.532;2023-05-07T02:56:02;14.50;99.90
23081;DHT22;11708;50.570;8.532;2023-05-07T02:58:28;14.50;99.90
23081;DHT22;11708;50.570;8.532;2023-05-07T03:00:53;14.40;99.90
23081;DHT22;11708;50.570;8.532;2023-05-07T03:03:22;14.50;99.90
23081;DHT22;11708;50.570;8.532;2023-05-07T03:05:48;14.40;99.90
23081;DHT22;11708;50.570;8.532;2023-05-07T03:08:13;14.40;99.90
23081;DHT22;11708;50.570;8.532;2023-05-07T03:10:39;14.40;99.90
23081;DHT22;11708;50.570;8.532;2023-05-07T03:13:05;14.40;99.90
23081;DHT22;11708;50.570;8.532;2023-05-07T03:15:30;14.20;99.90
23081;DHT22;11708;50.570;8.532;2023-05-07T03:17:56;14.30;99.90
23081;DHT22;11708;50.570;8.532;2023-05-07T03:20:22;14.30;99.90
23081;DHT22;11708;50.570;8.532;2023-05-07T03:22:47;14.30;99.90
23081;DHT22;11708;50.570;8.532;2023-05-07T03:25:13;14.20;99.90
23081;DHT22;11708;50.570;8.532;2023-05-07T03:27:40;14.30;99.90
23081;DHT22;11708;50.570;8.532;2023-05-07T03:30:07;14.30;99.90
23081;DHT22;11708;50.570;8.532;2023-05-07T03:32:34;14.30;99.90
23081;DHT22;11708;50.570;8.532;2023-05-07T03:35:00;14.30;99.90
23081;DHT22;11708;50.570;8.532;2023-05-07T03:37:26;14.30;99.90
23081;DHT22;11708;50.570;8.532;2023-05-07T03:39:51;14.30;99.90
23081;DHT22;11708;50.570;8.532;2023-05-07T03:42:17;14.30;99.90
23081;DHT22;11708;50.570;8.532;2023-05-07T03:44:42;14.20;99.90
23081;DHT22;11708;50.570;8.532;2023-05-07T03:47:08;14.20;99.90
23081;DHT22;11708;50.570;8.532;2023-05-07T03:49:35;14.20;99.90
23081;DHT22;11708;50.570;8.532;2023-05-07T03:52:01;14.20;99.90
23081;DHT22;11708;50.570;8.532;2023-05-07T03:54:26;14.20;99.90
23081;DHT22;11708;50.570;8.532;2023-05-07T03:56:52;14.20;99.90
23081;DHT22;11708;50.570;8.532;2023-05-07T03:59:17;14.20;99.90
23081;DHT22;11708;50.570;8.532;2023-05-07T04:01:43;14.20;99.90
23081;DHT22;11708;50.570;8.532;2023-05-07T04:04:08;14.20;99.90
23081;DHT22;11708;50.570;8.532;2023-05-07T04:06:34;14.20;99.90
23081;DHT22;11708;50.570;8.532;2023-05-07T04:09:00;14.20;99.90
23081;DHT22;11708;50.570;8.532;2023-05-07T04:11:25;14.20;99.90
23081;DHT22;11708;50.570;8.532;2023-05-07T04:13:51;14.10;99.90
23081;DHT22;11708;50.570;8.532;2023-05-07T04:16:16;14.20;99.90
23081;DHT22;11708;50.570;8.532;2023-05-07T04:18:42;14.20;99.90
23081;DHT22;11708;50.570;8.532;2023-05-07T04:21:18;14.10;99.90
23081;DHT22;11708;50.570;8.532;2023-05-07T04:23:45;14.20;99.90
23081;DHT22;11708;50.570;8.532;2023-05-07T04:26:11;14.10;99.90
23081;DHT22;11708;50.570;8.532;2023-05-07T04:28:36;14.20;99.90
23081;DHT22;11708;50.570;8.532;2023-05-07T04:31:02;14.10;99.90
23081;DHT22;11708;50.570;8.532;2023-05-07T04:33:27;14.10;99.90
23081;DHT22;11708;50.570;8.532;2023-05-07T04:35:53;14.10;99.90
23081;DHT22;11708;50.570;8.532;2023-05-07T04:38:19;14.20;99.90
23081;DHT22;11708;50.570;8.532;2023-05-07T04:40:44;14.10;99.90
23081;DHT22;11708;50.570;8.532;2023-05-07T04:43:10;14.10;99.90
23081;DHT22;11708;50.570;8.532;2023-05-07T04:45:36;14.10;99.90
23081;DHT22;11708;50.570;8.532;2023-05-07T04:48:02;14.10;99.90
23081;DHT22;11708;50.570;8.532;2023-05-07T04:50:27;14.10;99.90
23081;DHT22;11708;50.570;8.532;2023-05-07T04:52:53;14.20;99.90
23081;DHT22;11708;50.570;8.532;2023-05-07T04:55:19;14.40;99.90
23081;DHT22;11708;50.570;8.532;2023-05-07T04:57:44;14.20;99.90
23081;DHT22;11708;50.570;8.532;2023-05-07T05:00:10;14.20;99.90
23081;DHT22;11708;50.570;8.532;2023-05-07T05:02:39;14.20;99.90
23081;DHT22;11708;50.570;8.532;2023-05-07T05:05:05;14.20;99.90
23081;DHT22;11708;50.570;8.532;2023-05-07T05:07:32;14.20;99.90
23081;DHT22;11708;50.570;8.532;2023-05-07T05:09:58;14.20;99.90
23081;DHT22;11708;50.570;8.532;2023-05-07T05:12:23;14.20;99.90
23081;DHT22;11708;50.570;8.532;2023-05-07T05:14:49;14.20;99.90
23081;DHT22;11708;50.570;8.532;2023-05-07T05:17:15;14.20;99.90
23081;DHT22;11708;50.570;8.532;2023-05-07T05:19:40;14.20;99.90
23081;DHT22;11708;50.570;8.532;2023-05-07T05:22:06;14.20;99.90
23081;DHT22;11708;50.570;8.532;2023-05-07T05:24:32;14.30;99.90
23081;DHT22;11708;50.570;8.532;2023-05-07T05:26:57;14.30;99.90
23081;DHT22;11708;50.570;8.532;2023-05-07T05:29:25;14.30;99.90
23081;DHT22;11708;50.570;8.532;2023-05-07T05:31:50;14.40;99.90
23081;DHT22;11708;50.570;8.532;2023-05-07T05:34:16;14.60;99.90
23081;DHT22;11708;50.570;8.532;2023-05-07T05:36:42;14.50;99.90
23081;DHT22;11708;50.570;8.532;2023-05-07T05:39:08;14.50;99.90
23081;DHT22;11708;50.570;8.532;2023-05-07T05:41:34;14.50;99.90
23081;DHT22;11708;50.570;8.532;2023-05-07T05:43:59;14.50;99.90
23081;DHT22;11708;50.570;8.532;2023-05-07T05:46:25;14.50;99.90
23081;DHT22;11708;50.570;8.532;2023-05-07T05:48:50;14.60;99.90
23081;DHT22;11708;50.570;8.532;2023-05-07T05:51:16;14.60;99.90
23081;DHT22;11708;50.570;8.532;2023-05-07T05:53:41;14.70;99.90
23081;DHT22;11708;50.570;8.532;2023-05-07T05:56:07;14.60;99.90
23081;DHT22;11708;50.570;8.532;2023-05-07T05:58:33;14.70;99.90
23081;DHT22;11708;50.570;8.532;2023-05-07T06:00:58;14.70;99.90
23081;DHT22;11708;50.570;8.532;2023-05-07T06:03:24;14.80;99.90
23081;DHT22;11708;50.570;8.532;2023-05-07T06:05:49;14.80;99.90
23081;DHT22;11708;50.570;8.532;2023-05-07T06:08:15;14.80;99.90
23081;DHT22;11708;50.570;8.532;2023-05-07T06:10:41;14.90;99.90
23081;DHT22;11708;50.570;8.532;2023-05-07T06:13:07;14.90;99.90
23081;DHT22;11708;50.570;8.532;2023-05-07T06:15:32;14.90;99.90
23081;DHT22;11708;50.570;8.532;2023-05-07T06:17:58;14.90;99.90
23081;DHT22;11708;50.570;8.532;2023-05-07T06:20:23;14.90;99.90
23081;DHT22;11708;50.570;8.532;2023-05-07T06:22:49;15.00;99.90
23081;DHT22;11708;50.570;8.532;2023-05-07T06:25:15;14.90;99.90
23081;DHT22;11708;50.570;8.532;2023-05-07T06:27:40;15.10;99.90
23081;DHT22;11708;50.570;8.532;2023-05-07T06:30:07;15.10;99.90
23081;DHT22;11708;50.570;8.532;2023-05-07T06:32:32;15.20;99.90
23081;DHT22;11708;50.570;8.532;2023-05-07T06:34:58;15.20;99.90
23081;DHT22;11708;50.570;8.532;2023-05-07T06:37:23;15.20;99.90
23081;DHT22;11708;50.570;8.532;2023-05-07T06:39:49;15.20;99.90
23081;DHT22;11708;50.570;8.532;2023-05-07T06:42:15;15.30;99.90
23081;DHT22;11708;50.570;8.532;2023-05-07T06:44:40;15.30;99.90
23081;DHT22;11708;50.570;8.532;2023-05-07T06:47:06;15.40;99.90
23081;DHT22;11708;50.570;8.532;2023-05-07T06:49:31;15.40;99.90
23081;DHT22;11708;50.570;8.532;2023-05-07T06:51:57;15.50;99.90
23081;DHT22;11708;50.570;8.532;2023-05-07T06:54:23;15.60;99.90
23081;DHT22;11708;50.570;8.532;2023-05-07T06:56:49;15.60;99.90
23081;DHT22;11708;50.570;8.532;2023-05-07T06:59:14;15.70;99.90
23081;DHT22;11708;50.570;8.532;2023-05-07T07:01:40;15.70;99.90
23081;DHT22;11708;50.570;8.532;2023-05-07T07:04:06;15.80;99.90
23081;DHT22;11708;50.570;8.532;2023-05-07T07:06:31;15.90;99.90
23081;DHT22;11708;50.570;8.532;2023-05-07T07:08:58;16.00;99.90
23081;DHT22;11708;50.570;8.532;2023-05-07T07:11:24;16.00;99.90
23081;DHT22;11708;50.570;8.532;2023-05-07T07:13:49;16.10;99.90
23081;DHT22;11708;50.570;8.532;2023-05-07T07:16:16;16.20;99.90
23081;DHT22;11708;50.570;8.532;2023-05-07T07:18:41;16.20;99.90
23081;DHT22;11708;50.570;8.532;2023-05-07T07:21:07;16.40;99.90
23081;DHT22;11708;50.570;8.532;2023-05-07T07:23:32;16.50;99.90
23081;DHT22;11708;50.570;8.532;2023-05-07T07:25:58;16.50;99.90
23081;DHT22;11708;50.570;8.532;2023-05-07T07:28:24;16.50;99.90
23081;DHT22;11708;50.570;8.532;2023-05-07T07:30:49;16.60;99.90
23081;DHT22;11708;50.570;8.532;2023-05-07T07:33:15;16.70;99.90
23081;DHT22;11708;50.570;8.532;2023-05-07T07:35:41;16.70;99.90
23081;DHT22;11708;50.570;8.532;2023-05-07T07:38:06;16.80;99.90
23081;DHT22;11708;50.570;8.532;2023-05-07T07:40:34;16.90;99.90
23081;DHT22;11708;50.570;8.532;2023-05-07T07:43:00;16.90;99.90
23081;DHT22;11708;50.570;8.532;2023-05-07T07:45:26;16.90;99.90
23081;DHT22;11708;50.570;8.532;2023-05-07T07:47:52;16.90;99.90
23081;DHT22;11708;50.570;8.532;2023-05-07T07:50:18;17.00;99.90
23081;DHT22;11708;50.570;8.532;2023-05-07T07:52:44;17.10;99.90
23081;DHT22;11708;50.570;8.532;2023-05-07T07:55:09;17.30;99.90
23081;DHT22;11708;50.570;8.532;2023-05-07T07:57:35;17.20;99.90
23081;DHT22;11708;50.570;8.532;2023-05-07T08:00:01;17.20;99.90
23081;DHT22;11708;50.570;8.532;2023-05-07T08:02:26;17.30;99.90
23081;DHT22;11708;50.570;8.532;2023-05-07T08:04:52;17.30;99.90
23081;DHT22;11708;50.570;8.532;2023-05-07T08:07:17;17.40;99.90
23081;DHT22;11708;50.570;8.532;2023-05-07T08:09:46;17.40;99.90
23081;DHT22;11708;50.570;8.532;2023-05-07T08:12:11;17.40;99.90
23081;DHT22;11708;50.570;8.532;2023-05-07T08:14:37;17.40;99.90
23081;DHT22;11708;50.570;8.532;2023-05-07T08:17:03;17.50;99.90
23081;DHT22;11708;50.570;8.532;2023-05-07T08:19:28;17.60;99.90
23081;DHT22;11708;50.570;8.532;2023-05-07T08:21:54;17.60;99.90
23081;DHT22;11708;50.570;8.532;2023-05-07T08:24:20;17.70;99.90
23081;DHT22;11708;50.570;8.532;2023-05-07T08:26:46;17.80;99.90
23081;DHT22;11708;50.570;8.532;2023-05-07T08:29:11;17.80;99.90
23081;DHT22;11708;50.570;8.532;2023-05-07T08:31:37;17.90;99.90
23081;DHT22;11708;50.570;8.532;2023-05-07T08:34:04;18.00;99.90
23081;DHT22;11708;50.570;8.532;2023-05-07T08:36:30;18.10;99.90
23081;DHT22;11708;50.570;8.532;2023-05-07T08:38:56;18.10;99.90
23081;DHT22;11708;50.570;8.532;2023-05-07T08:41:21;18.20;99.90
23081;DHT22;11708;50.570;8.532;2023-05-07T08:43:49;18.20;99.90
23081;DHT22;11708;50.570;8.532;2023-05-07T08:46:20;18.30;99.90
23081;DHT22;11708;50.570;8.532;2023-05-07T08:48:49;18.40;99.90
23081;DHT22;11708;50.570;8.532;2023-05-07T08:51:19;18.50;99.90
23081;DHT22;11708;50.570;8.532;2023-05-07T08:53:47;18.60;99.90
23081;DHT22;11708;50.570;8.532;2023-05-07T08:56:16;18.60;99.90
23081;DHT22;11708;50.570;8.532;2023-05-07T08:58:43;18.70;99.90
23081;DHT22;11708;50.570;8.532;2023-05-07T09:01:11;18.80;99.90
23081;DHT22;11708;50.570;8.532;2023-05-07T09:03:38;18.80;99.90
23081;DHT22;11708;50.570;8.532;2023-05-07T09:06:04;18.90;99.90
23081;DHT22;11708;50.570;8.532;2023-05-07T09:08:32;19.00;99.90
23081;DHT22;11708;50.570;8.532;2023-05-07T09:10:58;19.10;99.90
23081;DHT22;11708;50.570;8.532;2023-05-07T09:13:24;19.10;99.90
23081;DHT22;11708;50.570;8.532;2023-05-07T09:15:50;19.10;99.90
23081;DHT22;11708;50.570;8.532;2023-05-07T09:18:15;19.10;99.90
23081;DHT22;11708;50.570;8.532;2023-05-07T09:20:41;19.20;99.90
23081;DHT22;11708;50.570;8.532;2023-05-07T09:23:07;19.20;99.90
23081;DHT22;11708;50.570;8.532;2023-05-07T09:25:34;19.30;99.90
23081;DHT22;11708;50.570;8.532;2023-05-07T09:28:01;19.40;99.90
23081;DHT22;11708;50.570;8.532;2023-05-07T09:30:28;19.40;99.90
23081;DHT22;11708;50.570;8.532;2023-05-07T09:32:54;19.40;99.90
23081;DHT22;11708;50.570;8.532;2023-05-07T09:35:20;19.40;99.90
23081;DHT22;11708;50.570;8.532;2023-05-07T09:37:56;19.50;99.90
23081;DHT22;11708;50.570;8.532;2023-05-07T09:40:23;19.50;99.90
23081;DHT22;11708;50.570;8.532;2023-05-07T09:42:49;19.50;99.90
23081;DHT22;11708;50.570;8.532;2023-05-07T09:45:26;19.80;99.90
23081;DHT22;11708;50.570;8.532;2023-05-07T09:47:55;19.50;99.90
23081;DHT22;11708;50.570;8.532;2023-05-07T09:51:09;19.50;99.90
23081;DHT22;11708;50.570;8.532;2023-05-07T09:53:09;19.50;99.90
23081;DHT22;11708;50.570;8.532;2023-05-07T09:55:36;19.50;99.90
23081;DHT22;11708;50.570;8.532;2023-05-07T09:58:02;19.50;99.90
23081;DHT22;11708;50.570;8.532;2023-05-07T10:00:30;19.50;99.90
23081;DHT22;11708;50.570;8.532;2023-05-07T10:02:57;19.50;99.90
23081;DHT22;11708;50.570;8.532;2023-05-07T10:05:24;19.30;99.90
23081;DHT22;11708;50.570;8.532;2023-05-07T10:07:50;19.50;99.90
23081;DHT22;11708;50.570;8.532;2023-05-07T10:10:17;19.50;99.90
23081;DHT22;11708;50.570;8.532;2023-05-07T10:12:43;19.60;99.90
23081;DHT22;11708;50.570;8.532;2023-05-07T10:15:12;19.50;99.90
23081;DHT22;11708;50.570;8.532;2023-05-07T10:17:40;19.70;99.90
23081;DHT22;11708;50.570;8.532;2023-05-07T10:20:07;19.80;99.90
23081;DHT22;11708;50.570;8.532;2023-05-07T10:22:38;19.80;99.90
23081;DHT22;11708;50.570;8.532;2023-05-07T10:25:08;19.90;99.90
23081;DHT22;11708;50.570;8.532;2023-05-07T10:27:36;20.00;99.90
23081;DHT22;11708;50.570;8.532;2023-05-07T10:32:59;20.10;99.90
23081;DHT22;11708;50.570;8.532;2023-05-07T10:35:37;20.20;99.90
23081;DHT22;11708;50.570;8.532;2023-05-07T10:38:04;20.20;99.90
23081;DHT22;11708;50.570;8.532;2023-05-07T10:40:31;20.20;99.90
23081;DHT22;11708;50.570;8.532;2023-05-07T10:43:01;20.30;99.90
23081;DHT22;11708;50.570;8.532;2023-05-07T10:45:28;20.50;99.90
23081;DHT22;11708;50.570;8.532;2023-05-07T10:48:10;20.70;99.90
23081;DHT22;11708;50.570;8.532;2023-05-07T10:50:37;20.90;99.90
23081;DHT22;11708;50.570;8.532;2023-05-07T10:53:20;21.10;99.90
23081;DHT22;11708;50.570;8.532;2023-05-07T10:55:48;21.40;99.90
23081;DHT22;11708;50.570;8.532;2023-05-07T10:58:25;21.50;99.90
23081;DHT22;11708;50.570;8.532;2023-05-07T11:00:58;21.60;99.90
23081;DHT22;11708;50.570;8.532;2023-05-07T11:03:25;21.60;99.90
23081;DHT22;11708;50.570;8.532;2023-05-07T11:08:55;21.70;99.90
23081;DHT22;11708;50.570;8.532;2023-05-07T11:11:46;21.70;99.90
23081;DHT22;11708;50.570;8.532;2023-05-07T11:17:07;21.80;99.90
23081;DHT22;11708;50.570;8.532;2023-05-07T11:19:52;21.90;99.90
23081;DHT22;11708;50.570;8.532;2023-05-07T11:22:36;22.10;99.90
23081;DHT22;11708;50.570;8.532;2023-05-07T11:25:05;22.40;99.90
23081;DHT22;11708;50.570;8.532;2023-05-07T11:27:32;22.60;99.90
23081;DHT22;11708;50.570;8.532;2023-05-07T11:29:58;22.80;99.90
23081;DHT22;11708;50.570;8.532;2023-05-07T11:32:26;23.10;99.90
23081;DHT22;11708;50.570;8.532;2023-05-07T11:34:55;23.30;99.90
23081;DHT22;11708;50.570;8.532;2023-05-07T11:37:21;23.40;99.90
23081;DHT22;11708;50.570;8.532;2023-05-07T11:39:47;23.60;99.90
23081;DHT22;11708;50.570;8.532;2023-05-07T11:42:29;23.70;99.90
23081;DHT22;11708;50.570;8.532;2023-05-07T11:44:55;23.90;99.90
23081;DHT22;11708;50.570;8.532;2023-05-07T11:47:21;24.20;99.90
23081;DHT22;11708;50.570;8.532;2023-05-07T11:49:48;24.50;99.90
23081;DHT22;11708;50.570;8.532;2023-05-07T11:52:15;24.80;99.90
23081;DHT22;11708;50.570;8.532;2023-05-07T11:54:41;24.90;99.90
23081;DHT22;11708;50.570;8.532;2023-05-07T11:57:06;25.10;99.90
23081;DHT22;11708;50.570;8.532;2023-05-07T11:59:42;25.20;99.90
23081;DHT22;11708;50.570;8.532;2023-05-07T12:02:09;25.30;99.90
23081;DHT22;11708;50.570;8.532;2023-05-07T12:04:35;25.60;99.90
23081;DHT22;11708;50.570;8.532;2023-05-07T12:07:01;25.80;99.90
23081;DHT22;11708;50.570;8.532;2023-05-07T12:09:27;26.00;99.90
23081;DHT22;11708;50.570;8.532;2023-05-07T12:11:53;26.20;99.90
23081;DHT22;11708;50.570;8.532;2023-05-07T12:14:18;26.40;99.90
23081;DHT22;11708;50.570;8.532;2023-05-07T12:16:44;26.70;99.90
23081;DHT22;11708;50.570;8.532;2023-05-07T12:19:11;27.00;99.90
23081;DHT22;11708;50.570;8.532;2023-05-07T12:21:38;27.10;99.90
23081;DHT22;11708;50.570;8.532;2023-05-07T12:24:04;27.20;99.90
23081;DHT22;11708;50.570;8.532;2023-05-07T12:26:30;27.30;99.90
23081;DHT22;11708;50.570;8.532;2023-05-07T12:28:57;27.50;99.90
23081;DHT22;11708;50.570;8.532;2023-05-07T12:31:25;27.50;99.90
23081;DHT22;11708;50.570;8.532;2023-05-07T12:33:51;27.50;99.90
23081;DHT22;11708;50.570;8.532;2023-05-07T12:36:17;27.60;99.90
23081;DHT22;11708;50.570;8.532;2023-05-07T12:38:42;27.60;99.90
23081;DHT22;11708;50.570;8.532;2023-05-07T12:41:09;27.80;99.90
23081;DHT22;11708;50.570;8.532;2023-05-07T12:43:37;28.00;99.90
23081;DHT22;11708;50.570;8.532;2023-05-07T12:46:05;28.40;99.90
23081;DHT22;11708;50.570;8.532;2023-05-07T12:48:31;28.70;99.90
23081;DHT22;11708;50.570;8.532;2023-05-07T12:50:58;29.00;99.90
23081;DHT22;11708;50.570;8.532;2023-05-07T12:53:25;29.00;99.90
23081;DHT22;11708;50.570;8.532;2023-05-07T12:55:56;29.00;99.90
23081;DHT22;11708;50.570;8.532;2023-05-07T12:58:27;29.20;99.90
23081;DHT22;11708;50.570;8.532;2023-05-07T13:00:53;29.20;99.90
23081;DHT22;11708;50.570;8.532;2023-05-07T13:03:30;29.30;99.90
23081;DHT22;11708;50.570;8.532;2023-05-07T13:06:07;29.40;99.90
23081;DHT22;11708;50.570;8.532;2023-05-07T13:08:34;29.10;99.90
23081;DHT22;11708;50.570;8.532;2023-05-07T13:11:02;28.80;99.90
23081;DHT22;11708;50.570;8.532;2023-05-07T13:13:30;28.70;99.90
23081;DHT22;11708;50.570;8.532;2023-05-07T13:15:56;28.70;99.90
23081;DHT22;11708;50.570;8.532;2023-05-07T13:18:21;28.80;99.90
23081;DHT22;11708;50.570;8.532;2023-05-07T13:20:47;28.90;99.90
23081;DHT22;11708;50.570;8.532;2023-05-07T13:23:13;28.70;99.90
23081;DHT22;11708;50.570;8.532;2023-05-07T13:25:38;28.80;99.90
23081;DHT22;11708;50.570;8.532;2023-05-07T13:28:04;28.80;99.90
23081;DHT22;11708;50.570;8.532;2023-05-07T13:30:30;28.90;99.90
23081;DHT22;11708;50.570;8.532;2023-05-07T13:32:55;29.10;99.90
23081;DHT22;11708;50.570;8.532;2023-05-07T13:35:21;28.80;99.90
23081;DHT22;11708;50.570;8.532;2023-05-07T13:37:47;29.00;99.90
23081;DHT22;11708;50.570;8.532;2023-05-07T13:40:14;29.00;99.90
23081;DHT22;11708;50.570;8.532;2023-05-07T13:42:40;29.20;99.90
23081;DHT22;11708;50.570;8.532;2023-05-07T13:45:07;29.80;99.90
23081;DHT22;11708;50.570;8.532;2023-05-07T13:47:32;29.40;99.50
23081;DHT22;11708;50.570;8.532;2023-05-07T13:49:58;29.20;99.60
23081;DHT22;11708;50.570;8.532;2023-05-07T13:52:23;29.00;99.50
23081;DHT22;11708;50.570;8.532;2023-05-07T13:54:49;28.80;99.50
23081;DHT22;11708;50.570;8.532;2023-05-07T13:57:14;28.40;99.30
23081;DHT22;11708;50.570;8.532;2023-05-07T13:59:41;28.20;99.90
23081;DHT22;11708;50.570;8.532;2023-05-07T14:02:06;28.10;99.90
23081;DHT22;11708;50.570;8.532;2023-05-07T14:04:32;27.90;99.90
23081;DHT22;11708;50.570;8.532;2023-05-07T14:06:57;27.70;99.90
23081;DHT22;11708;50.570;8.532;2023-05-07T14:09:23;27.60;99.90
23081;DHT22;11708;50.570;8.532;2023-05-07T14:11:48;27.40;99.90
23081;DHT22;11708;50.570;8.532;2023-05-07T14:14:17;27.10;99.90
23081;DHT22;11708;50.570;8.532;2023-05-07T14:16:42;27.00;99.90
23081;DHT22;11708;50.570;8.532;2023-05-07T14:19:08;26.80;99.90
23081;DHT22;11708;50.570;8.532;2023-05-07T14:21:33;26.40;99.90
23081;DHT22;11708;50.570;8.532;2023-05-07T14:23:59;26.20;99.90
23081;DHT22;11708;50.570;8.532;2023-05-07T14:26:25;26.00;99.90
23081;DHT22;11708;50.570;8.532;2023-05-07T14:28:52;25.90;99.90
23081;DHT22;11708;50.570;8.532;2023-05-07T14:31:20;25.80;99.90
23081;DHT22;11708;50.570;8.532;2023-05-07T14:33:46;25.70;99.90
23081;DHT22;11708;50.570;8.532;2023-05-07T14:36:11;25.60;99.90
23081;DHT22;11708;50.570;8.532;2023-05-07T14:38:37;25.50;99.90
23081;DHT22;11708;50.570;8.532;2023-05-07T14:41:03;25.50;99.90
23081;DHT22;11708;50.570;8.532;2023-05-07T14:43:29;25.50;99.90
23081;DHT22;11708;50.570;8.532;2023-05-07T14:45:54;25.50;99.90
23081;DHT22;11708;50.570;8.532;2023-05-07T14:48:20;25.40;99.90
23081;DHT22;11708;50.570;8.532;2023-05-07T14:50:49;25.40;99.90
23081;DHT22;11708;50.570;8.532;2023-05-07T14:53:15;25.40;99.90
23081;DHT22;11708;50.570;8.532;2023-05-07T14:55:41;25.50;99.90
23081;DHT22;11708;50.570;8.532;2023-05-07T14:58:06;25.50;99.90
23081;DHT22;11708;50.570;8.532;2023-05-07T15:00:32;25.50;99.90
23081;DHT22;11708;50.570;8.532;2023-05-07T15:03:07;25.60;99.90
23081;DHT22;11708;50.570;8.532;2023-05-07T15:05:32;25.60;99.90
23081;DHT22;11708;50.570;8.532;2023-05-07T15:07:58;25.60;99.90
23081;DHT22;11708;50.570;8.532;2023-05-07T15:10:24;25.60;99.90
23081;DHT22;11708;50.570;8.532;2023-05-07T15:12:50;25.50;99.90
23081;DHT22;11708;50.570;8.532;2023-05-07T15:15:15;25.40;99.90
23081;DHT22;11708;50.570;8.532;2023-05-07T15:17:41;25.30;99.90
23081;DHT22;11708;50.570;8.532;2023-05-07T15:20:07;25.30;99.90
23081;DHT22;11708;50.570;8.532;2023-05-07T15:22:33;25.30;99.90
23081;DHT22;11708;50.570;8.532;2023-05-07T15:24:59;25.30;99.90
23081;DHT22;11708;50.570;8.532;2023-05-07T15:27:25;25.30;99.90
23081;DHT22;11708;50.570;8.532;2023-05-07T15:29:50;25.30;99.90
23081;DHT22;11708;50.570;8.532;2023-05-07T15:32:16;25.30;99.90
23081;DHT22;11708;50.570;8.532;2023-05-07T15:34:42;25.10;99.90